createdAt,value
2023-05-24T00:00:29.155Z,9.52
2023-05-24T00:02:57.763Z,9.48
2023-05-24T00:05:25.847Z,9.44
2023-05-24T00:07:54.152Z,9.35
2023-05-24T00:10:21.967Z,9.56
2023-05-24T00:12:50.453Z,9.57
2023-05-24T00:15:19.616Z,9.65
2023-05-24T00:17:47.830Z,9.69
2023-05-24T00:20:15.675Z,9.74
2023-05-24T00:22:44.258Z,9.82
2023-05-24T00:25:11.954Z,9.75
2023-05-24T00:27:40.326Z,9.58
2023-05-24T00:30:09.347Z,9.47
2023-05-24T00:32:38.794Z,9.36
2023-05-24T00:35:07.343Z,9.25
2023-05-24T00:37:35.255Z,9.24
2023-05-24T00:40:04.249Z,9.22
2023-05-24T00:42:32.191Z,8.99
2023-05-24T00:44:59.826Z,9.01
2023-05-24T00:47:27.927Z,9.00
2023-05-24T00:49:57.490Z,8.89
2023-05-24T00:52:25.429Z,8.89
2023-05-24T00:54:53.217Z,8.86
2023-05-24T00:57:21.595Z,8.83
2023-05-24T00:59:49.856Z,8.84
2023-05-24T01:02:18.455Z,8.65
2023-05-24T01:04:49.185Z,8.83
2023-05-24T01:07:27.853Z,8.86
2023-05-24T01:10:11.228Z,8.93
2023-05-24T01:12:53.114Z,8.93
2023-05-24T01:15:26.242Z,8.93
2023-05-24T01:18:05.585Z,9.02
2023-05-24T01:20:38.288Z,9.22
2023-05-24T01:23:18.772Z,9.16
2023-05-24T01:26:07.291Z,9.08
2023-05-24T01:28:38.339Z,9.07
2023-05-24T01:31:07.251Z,9.14
2023-05-24T01:33:34.956Z,9.21
2023-05-24T01:36:02.884Z,9.22
2023-05-24T01:38:30.703Z,9.15
2023-05-24T01:41:05.761Z,9.18
2023-05-24T01:43:40.644Z,9.07
2023-05-24T01:46:20.606Z,9.24
2023-05-24T01:49:00.845Z,9.38
2023-05-24T01:51:36.790Z,9.42
2023-05-24T01:54:07.292Z,9.32
2023-05-24T01:56:36.696Z,9.24
2023-05-24T01:59:08.380Z,9.29
2023-05-24T02:01:36.647Z,9.27
2023-05-24T02:04:04.770Z,9.37
2023-05-24T02:06:32.690Z,9.27
2023-05-24T02:09:00.648Z,9.31
2023-05-24T02:11:28.572Z,9.44
2023-05-24T02:13:56.278Z,9.57
2023-05-24T02:16:27.088Z,9.58
2023-05-24T02:18:54.897Z,9.58
2023-05-24T02:21:23.651Z,9.67
2023-05-24T02:23:51.338Z,9.74
2023-05-24T02:26:19.583Z,9.78
2023-05-24T02:28:48.185Z,9.61
2023-05-24T02:31:16.182Z,9.76
2023-05-24T02:33:45.348Z,9.83
2023-05-24T02:36:13.400Z,9.82
2023-05-24T02:38:41.334Z,9.85
2023-05-24T02:41:09.712Z,9.87
2023-05-24T02:43:37.368Z,9.85
2023-05-24T02:46:05.108Z,9.80
2023-05-24T02:48:32.828Z,9.83
2023-05-24T02:51:03.476Z,9.88
2023-05-24T02:53:31.534Z,9.90
2023-05-24T02:55:59.917Z,9.89
2023-05-24T02:58:30.506Z,9.88
2023-05-24T03:00:59.542Z,9.85
2023-05-24T03:03:27.612Z,9.79
2023-05-24T03:05:56.078Z,9.90
2023-05-24T03:08:25.113Z,9.84
2023-05-24T03:10:54.638Z,9.80
2023-05-24T03:13:22.607Z,9.78
2023-05-24T03:15:50.542Z,9.75
2023-05-24T03:18:18.282Z,9.70
2023-05-24T03:20:47.152Z,9.72
2023-05-24T03:23:14.961Z,9.72
2023-05-24T03:25:44.585Z,9.64
2023-05-24T03:28:14.669Z,9.64
2023-05-24T03:30:44.278Z,9.58
2023-05-24T03:33:12.154Z,9.66
2023-05-24T03:35:39.990Z,9.53
2023-05-24T03:38:08.119Z,9.49
2023-05-24T03:40:38.591Z,9.52
2023-05-24T03:43:13.526Z,9.45
2023-05-24T03:45:49.386Z,9.44
2023-05-24T03:48:17.796Z,9.39
2023-05-24T03:50:45.812Z,9.39
2023-05-24T03:53:13.856Z,9.48
2023-05-24T03:55:41.626Z,9.50
2023-05-24T03:58:09.579Z,9.48
2023-05-24T04:00:38.721Z,9.52
2023-05-24T04:03:07.325Z,9.48
2023-05-24T04:05:35.500Z,9.51
2023-05-24T04:08:03.656Z,9.38
2023-05-24T04:10:31.337Z,9.53
2023-05-24T04:13:00.895Z,9.43
2023-05-24T04:15:28.593Z,9.38
2023-05-24T04:17:58.083Z,9.40
2023-05-24T04:20:27.585Z,9.25
2023-05-24T04:22:56.504Z,9.12
2023-05-24T04:25:24.586Z,9.04
2023-05-24T04:27:52.571Z,9.09
2023-05-24T04:30:21.252Z,9.12
2023-05-24T04:32:49.466Z,9.07
2023-05-24T04:35:19.388Z,9.07
2023-05-24T04:37:48.529Z,8.99
2023-05-24T04:40:17.453Z,9.05
2023-05-24T04:42:45.422Z,8.95
2023-05-24T04:45:13.186Z,9.22
2023-05-24T04:47:42.691Z,9.15
2023-05-24T04:50:10.982Z,9.31
2023-05-24T04:52:40.256Z,9.31
2023-05-24T04:55:08.578Z,9.35
2023-05-24T04:57:36.582Z,9.57
2023-05-24T05:00:05.134Z,9.47
2023-05-24T05:02:33.722Z,9.51
2023-05-24T05:05:01.433Z,9.49
2023-05-24T05:07:29.105Z,9.45
2023-05-24T05:09:58.172Z,9.46
2023-05-24T05:12:25.945Z,9.40
2023-05-24T05:14:54.407Z,9.51
2023-05-24T05:17:22.335Z,9.47
2023-05-24T05:19:50.318Z,9.55
2023-05-24T05:22:17.992Z,9.47
2023-05-24T05:24:46.045Z,9.46
2023-05-24T05:27:15.219Z,9.52
2023-05-24T05:29:42.904Z,9.67
2023-05-24T05:32:11.168Z,9.81
2023-05-24T05:34:38.815Z,9.89
2023-05-24T05:37:06.645Z,10.04
2023-05-24T05:39:34.572Z,10.17
2023-05-24T05:42:02.396Z,10.26
2023-05-24T05:44:31.722Z,10.15
2023-05-24T05:46:59.407Z,10.26
2023-05-24T05:49:27.365Z,10.25
2023-05-24T05:51:55.018Z,10.33
2023-05-24T05:54:22.928Z,10.26
2023-05-24T05:56:51.017Z,10.27
2023-05-24T05:59:19.735Z,10.22
2023-05-24T06:01:49.049Z,10.25
2023-05-24T06:04:17.633Z,10.27
2023-05-24T06:06:49.338Z,10.47
2023-05-24T06:09:17.513Z,10.54
2023-05-24T06:11:46.083Z,10.55
2023-05-24T06:14:18.371Z,10.58
2023-05-24T06:16:47.882Z,10.72
2023-05-24T06:19:16.527Z,10.72
2023-05-24T06:21:48.301Z,10.72
2023-05-24T06:24:20.250Z,10.89
2023-05-24T06:26:48.666Z,10.85
2023-05-24T06:29:16.587Z,10.87
2023-05-24T06:31:44.585Z,10.98
2023-05-24T06:34:16.913Z,10.96
2023-05-24T06:36:46.469Z,11.13
2023-05-24T06:39:14.314Z,11.28
2023-05-24T06:41:42.574Z,11.20
2023-05-24T06:44:10.264Z,11.21
2023-05-24T06:46:38.046Z,11.19
2023-05-24T06:49:06.153Z,11.51
2023-05-24T06:51:35.251Z,11.69
2023-05-24T06:54:04.234Z,12.49
2023-05-24T06:56:32.017Z,13.50
2023-05-24T06:59:00.944Z,13.92
2023-05-24T07:01:29.184Z,14.11
2023-05-24T07:03:57.266Z,14.30
2023-05-24T07:06:25.147Z,14.90
2023-05-24T07:08:54.177Z,16.05
2023-05-24T07:11:22.353Z,16.45
2023-05-24T07:13:50.008Z,16.25
2023-05-24T07:16:17.730Z,16.50
2023-05-24T07:18:45.438Z,16.65
2023-05-24T07:21:13.512Z,16.71
2023-05-24T07:23:41.152Z,16.45
2023-05-24T07:26:10.770Z,16.97
2023-05-24T07:28:40.466Z,16.49
2023-05-24T07:31:10.190Z,16.85
2023-05-24T07:33:38.393Z,16.85
2023-05-24T07:36:07.277Z,15.03
2023-05-24T07:38:35.142Z,15.55
2023-05-24T07:41:04.955Z,16.17
2023-05-24T07:43:34.101Z,17.00
2023-05-24T07:46:01.941Z,16.86
2023-05-24T07:48:29.686Z,15.98
2023-05-24T07:50:57.409Z,16.25
2023-05-24T07:53:25.098Z,16.44
2023-05-24T07:55:52.750Z,16.57
2023-05-24T07:58:20.591Z,16.48
2023-05-24T08:00:49.594Z,15.40
2023-05-24T08:03:18.277Z,15.76
2023-05-24T08:05:46.142Z,15.80
2023-05-24T08:08:13.949Z,16.13
2023-05-24T08:10:42.035Z,15.42
2023-05-24T08:13:09.882Z,16.07
2023-05-24T08:15:38.075Z,15.66
2023-05-24T08:18:07.127Z,15.56
2023-05-24T08:20:36.857Z,15.10
2023-05-24T08:23:04.602Z,14.77
2023-05-24T08:25:33.188Z,14.83
2023-05-24T08:28:01.115Z,15.09
2023-05-24T08:30:29.069Z,15.39
2023-05-24T08:32:58.441Z,15.04
2023-05-24T08:35:27.510Z,14.75
2023-05-24T08:37:55.527Z,14.56
2023-05-24T08:40:23.951Z,14.07
2023-05-24T08:42:53.578Z,14.18
2023-05-24T08:45:25.566Z,14.57
2023-05-24T08:47:53.718Z,14.90
2023-05-24T08:50:21.556Z,14.96
2023-05-24T08:52:52.435Z,15.27
2023-05-24T08:55:21.214Z,15.55
2023-05-24T08:57:50.079Z,15.32
2023-05-24T09:00:19.481Z,15.19
2023-05-24T09:02:48.023Z,15.41
2023-05-24T09:05:17.288Z,15.36
2023-05-24T09:07:46.631Z,15.20
2023-05-24T09:10:16.649Z,15.03
2023-05-24T09:12:46.786Z,15.76
2023-05-24T09:15:14.796Z,15.93
2023-05-24T09:17:42.525Z,16.00
2023-05-24T09:20:12.076Z,15.94
2023-05-24T09:22:42.849Z,15.98
2023-05-24T09:25:13.904Z,16.58
2023-05-24T09:27:45.511Z,16.48
2023-05-24T09:30:16.652Z,16.33
2023-05-24T09:32:56.239Z,16.30
2023-05-24T09:35:26.963Z,16.47
2023-05-24T09:37:59.619Z,16.68
2023-05-24T09:40:29.210Z,16.60
2023-05-24T09:43:09.842Z,16.44
2023-05-24T09:45:44.625Z,16.25
2023-05-24T09:48:13.421Z,16.00
2023-05-24T09:50:42.135Z,15.74
2023-05-24T09:53:10.004Z,15.10
2023-05-24T09:55:38.388Z,15.00
2023-05-24T09:58:09.215Z,14.86
2023-05-24T10:00:41.352Z,15.39
2023-05-24T10:03:11.113Z,15.43
2023-05-24T10:05:40.065Z,15.39
2023-05-24T10:08:09.377Z,15.51
2023-05-24T10:10:37.556Z,15.89
2023-05-24T10:13:07.628Z,15.74
2023-05-24T10:15:35.347Z,15.44
2023-05-24T10:18:10.401Z,15.73
2023-05-24T10:20:41.283Z,15.78
2023-05-24T10:23:11.426Z,15.66
2023-05-24T10:25:48.374Z,15.45
2023-05-24T10:28:19.458Z,16.20
2023-05-24T10:30:55.757Z,16.79
2023-05-24T10:33:26.137Z,16.87
2023-05-24T10:35:54.501Z,16.80
2023-05-24T10:38:24.323Z,16.45
2023-05-24T10:40:52.879Z,15.99
2023-05-24T10:43:22.971Z,15.84
2023-05-24T10:45:52.266Z,16.52
2023-05-24T10:49:00.496Z,17.11
2023-05-24T10:51:37.390Z,17.25
2023-05-24T10:54:19.125Z,16.94
2023-05-24T10:56:49.545Z,16.96
2023-05-24T10:59:29.248Z,16.79
2023-05-24T11:01:58.894Z,16.77
2023-05-24T11:04:27.316Z,17.06
2023-05-24T11:06:58.033Z,17.26
2023-05-24T11:09:27.750Z,17.62
2023-05-24T11:11:56.649Z,17.42
2023-05-24T11:14:29.819Z,17.30
2023-05-24T11:17:01.240Z,16.74
2023-05-24T11:19:34.964Z,16.63
2023-05-24T11:22:04.089Z,16.69
2023-05-24T11:24:32.584Z,17.56
2023-05-24T11:27:02.167Z,17.44
2023-05-24T11:29:31.825Z,17.48
2023-05-24T11:32:04.532Z,17.61
2023-05-24T11:34:33.134Z,17.59
2023-05-24T11:37:02.040Z,17.45
2023-05-24T11:39:31.758Z,17.13
2023-05-24T11:41:59.852Z,17.48
2023-05-24T11:44:30.863Z,17.29
2023-05-24T11:47:01.063Z,18.02
2023-05-24T11:49:29.422Z,18.38
2023-05-24T11:51:58.317Z,18.25
2023-05-24T11:54:27.021Z,18.20
2023-05-24T11:56:55.472Z,18.41
2023-05-24T11:59:25.532Z,18.15
2023-05-24T12:02:01.516Z,18.35
2023-05-24T12:04:30.842Z,18.46
2023-05-24T12:06:58.839Z,18.74
2023-05-24T12:09:27.946Z,18.48
2023-05-24T12:11:57.559Z,17.98
2023-05-24T12:14:28.638Z,18.65
2023-05-24T12:16:57.474Z,18.43
2023-05-24T12:19:33.638Z,18.38
2023-05-24T12:22:02.417Z,18.27
2023-05-24T12:24:32.869Z,18.46
2023-05-24T12:27:02.540Z,18.58
2023-05-24T12:29:34.276Z,18.70
2023-05-24T12:32:01.925Z,18.54
2023-05-24T12:34:30.968Z,18.43
2023-05-24T12:36:58.715Z,18.42
2023-05-24T12:39:31.184Z,18.66
2023-05-24T12:42:01.931Z,18.28
2023-05-24T12:44:31.330Z,19.05
2023-05-24T12:46:59.844Z,19.10
2023-05-24T12:49:28.146Z,19.28
2023-05-24T12:51:57.972Z,18.78
2023-05-24T12:54:27.739Z,18.75
2023-05-24T12:56:57.588Z,18.59
2023-05-24T12:59:27.267Z,18.66
2023-05-24T13:01:56.258Z,18.50
2023-05-24T13:04:26.315Z,18.24
2023-05-24T13:06:54.767Z,18.83
2023-05-24T13:09:25.439Z,18.75
2023-05-24T13:11:53.936Z,18.79
2023-05-24T13:14:22.212Z,18.92
2023-05-24T13:16:50.483Z,18.99
2023-05-24T13:19:18.665Z,18.67
2023-05-24T13:21:47.142Z,18.86
2023-05-24T13:24:17.182Z,18.60
2023-05-24T13:26:47.207Z,18.55
2023-05-24T13:31:45.884Z,18.81
2023-05-24T13:34:13.997Z,19.04
2023-05-24T13:36:42.034Z,18.89
2023-05-24T13:39:15.444Z,19.03
2023-05-24T13:42:01.095Z,18.45
2023-05-24T13:44:29.427Z,19.29
2023-05-24T13:46:57.430Z,18.97
2023-05-24T13:49:25.258Z,19.23
2023-05-24T13:51:55.483Z,19.17
2023-05-24T13:54:26.283Z,18.95
2023-05-24T13:56:57.560Z,19.52
2023-05-24T13:59:27.277Z,19.58
2023-05-24T14:01:55.507Z,19.60
2023-05-24T14:04:23.369Z,19.67
2023-05-24T14:06:51.245Z,19.79
2023-05-24T14:09:21.025Z,19.32
2023-05-24T14:11:49.346Z,19.46
2023-05-24T14:16:52.041Z,19.12
2023-05-24T14:19:19.851Z,18.56
2023-05-24T14:21:48.411Z,18.11
2023-05-24T14:24:16.119Z,17.76
2023-05-24T14:26:43.907Z,18.19
2023-05-24T14:29:12.199Z,18.71
2023-05-24T14:31:42.265Z,18.96
2023-05-24T14:34:12.154Z,18.99
2023-05-24T14:36:41.431Z,18.84
2023-05-24T14:39:09.390Z,18.89
2023-05-24T14:41:37.448Z,18.31
2023-05-24T14:44:05.535Z,17.85
2023-05-24T14:46:34.916Z,17.35
2023-05-24T14:49:04.050Z,17.25
2023-05-24T14:51:33.148Z,17.28
2023-05-24T14:54:00.856Z,17.61
2023-05-24T14:56:28.990Z,17.91
2023-05-24T14:58:57.397Z,17.79
2023-05-24T15:01:25.548Z,18.02
2023-05-24T15:03:53.377Z,18.30
2023-05-24T15:06:21.461Z,18.28
2023-05-24T15:08:51.860Z,17.99
2023-05-24T15:11:19.593Z,18.04
2023-05-24T15:13:47.532Z,18.03
2023-05-24T15:16:15.324Z,18.25
2023-05-24T15:18:43.445Z,18.40
2023-05-24T15:21:11.244Z,18.47
2023-05-24T15:23:39.190Z,18.22
2023-05-24T15:26:08.262Z,18.29
2023-05-24T15:28:35.883Z,18.08
2023-05-24T15:31:03.987Z,18.47
2023-05-24T15:33:32.601Z,18.41
2023-05-24T15:36:00.745Z,18.41
2023-05-24T15:38:28.466Z,18.35
2023-05-24T15:40:56.411Z,18.17
2023-05-24T15:43:25.435Z,17.86
2023-05-24T15:45:53.769Z,18.21
2023-05-24T15:48:22.768Z,18.00
2023-05-24T15:51:09.373Z,18.34
2023-05-24T15:53:38.694Z,18.12
2023-05-24T15:56:07.213Z,17.82
2023-05-24T15:58:36.600Z,17.81
2023-05-24T16:01:04.293Z,17.74
2023-05-24T16:03:32.465Z,17.31
2023-05-24T16:06:00.282Z,17.08
2023-05-24T16:08:29.079Z,16.91
2023-05-24T16:10:57.547Z,16.71
2023-05-24T16:13:25.594Z,16.67
2023-05-24T16:15:55.016Z,16.49
2023-05-24T16:18:23.519Z,16.30
2023-05-24T16:20:52.095Z,16.03
2023-05-24T16:23:23.359Z,15.89
2023-05-24T16:25:51.270Z,16.01
2023-05-24T16:28:24.031Z,16.01
2023-05-24T16:30:55.433Z,15.91
2023-05-24T16:33:25.315Z,15.84
2023-05-24T16:35:56.152Z,15.99
2023-05-24T16:38:24.214Z,15.91
2023-05-24T16:40:52.441Z,16.09
2023-05-24T16:43:20.369Z,16.03
2023-05-24T16:45:48.457Z,15.83
2023-05-24T16:48:16.234Z,15.73
2023-05-24T16:50:45.988Z,15.56
2023-05-24T16:53:13.783Z,15.55
2023-05-24T16:55:41.510Z,15.46
2023-05-24T16:58:09.324Z,15.38
2023-05-24T17:00:37.100Z,15.58
2023-05-24T17:03:05.033Z,16.60
2023-05-24T17:05:32.817Z,16.95
2023-05-24T17:08:02.177Z,16.75
2023-05-24T17:10:29.905Z,17.06
2023-05-24T17:12:57.811Z,17.65
2023-05-24T17:15:25.489Z,17.27
2023-05-24T17:17:53.739Z,16.71
2023-05-24T17:20:21.731Z,16.45
2023-05-24T17:22:50.698Z,16.02
2023-05-24T17:25:19.800Z,15.82
2023-05-24T17:27:47.567Z,15.72
2023-05-24T17:30:15.346Z,15.58
2023-05-24T17:32:43.088Z,15.51
2023-05-24T17:35:11.303Z,15.58
2023-05-24T17:37:39.034Z,15.32
2023-05-24T17:40:08.309Z,15.36
2023-05-24T17:42:37.428Z,15.41
2023-05-24T17:45:06.799Z,15.33
2023-05-24T17:47:34.796Z,15.33
2023-05-24T17:50:02.541Z,15.38
2023-05-24T17:52:30.257Z,15.39
2023-05-24T17:54:58.242Z,15.29
2023-05-24T17:57:26.939Z,15.29
2023-05-24T17:59:56.050Z,15.28
2023-05-24T18:02:24.014Z,15.33
2023-05-24T18:04:52.488Z,15.30
2023-05-24T18:07:20.489Z,15.31
2023-05-24T18:09:48.176Z,15.25
2023-05-24T18:12:16.281Z,15.37
2023-05-24T18:14:44.484Z,15.29
2023-05-24T18:17:14.927Z,15.15
2023-05-24T18:19:42.763Z,15.02
2023-05-24T18:22:10.809Z,14.91
2023-05-24T18:24:38.506Z,14.88
2023-05-24T18:27:06.711Z,14.69
2023-05-24T18:29:34.605Z,14.68
2023-05-24T18:32:02.633Z,14.51
2023-05-24T18:34:31.978Z,14.45
2023-05-24T18:36:59.805Z,14.48
2023-05-24T18:39:27.547Z,14.43
2023-05-24T18:41:55.256Z,14.23
2023-05-24T18:44:23.182Z,14.07
2023-05-24T18:46:55.391Z,13.91
2023-05-24T18:49:24.253Z,13.92
2023-05-24T18:51:53.295Z,13.78
2023-05-24T18:54:20.956Z,13.58
2023-05-24T18:56:48.705Z,13.57
2023-05-24T18:59:17.478Z,13.46
2023-05-24T19:01:45.966Z,13.40
2023-05-24T19:04:13.696Z,13.30
2023-05-24T19:06:41.712Z,13.20
2023-05-24T19:09:10.747Z,13.06
2023-05-24T19:11:38.678Z,13.04
2023-05-24T19:14:06.381Z,12.91
2023-05-24T19:16:34.107Z,12.82
2023-05-24T19:19:02.145Z,12.77
2023-05-24T19:21:29.957Z,12.69
2023-05-24T19:23:57.908Z,12.60
2023-05-24T19:26:27.142Z,12.49
2023-05-24T19:28:55.266Z,12.49
2023-05-24T19:31:25.634Z,12.44
2023-05-24T19:34:00.333Z,12.32
2023-05-24T19:36:30.878Z,12.25
2023-05-24T19:38:58.543Z,12.23
2023-05-24T19:41:28.244Z,12.29
2023-05-24T19:43:58.371Z,12.23
2023-05-24T19:46:26.501Z,12.10
2023-05-24T19:48:54.235Z,12.17
2023-05-24T19:51:22.365Z,12.16
2023-05-24T19:53:50.061Z,12.13
2023-05-24T19:56:17.713Z,11.99
2023-05-24T19:58:47.244Z,11.94
2023-05-24T20:01:15.020Z,11.91
2023-05-24T20:03:48.280Z,11.80
2023-05-24T20:06:16.666Z,11.70
2023-05-24T20:08:45.058Z,11.73
2023-05-24T20:11:14.202Z,11.49
2023-05-24T20:13:42.135Z,11.35
2023-05-24T20:16:11.381Z,11.22
2023-05-24T20:18:39.466Z,11.16
2023-05-24T20:21:07.263Z,11.01
2023-05-24T20:23:34.963Z,10.88
2023-05-24T20:26:03.110Z,10.80
2023-05-24T20:28:31.957Z,10.70
2023-05-24T20:31:01.370Z,10.55
2023-05-24T20:33:30.413Z,10.53
2023-05-24T20:35:59.472Z,10.48
2023-05-24T20:38:27.241Z,10.50
2023-05-24T20:40:54.956Z,10.49
2023-05-24T20:43:22.903Z,10.33
2023-05-24T20:45:50.577Z,10.35
2023-05-24T20:48:19.229Z,10.42
2023-05-24T20:50:48.314Z,10.36
2023-05-24T20:53:15.993Z,10.26
2023-05-24T20:55:44.456Z,10.25
2023-05-24T20:58:12.557Z,10.23
2023-05-24T21:00:41.052Z,10.21
2023-05-24T21:03:09.738Z,10.17
2023-05-24T21:05:39.877Z,10.23
2023-05-24T21:08:08.960Z,10.15
2023-05-24T21:10:37.988Z,10.10
2023-05-24T21:13:06.200Z,10.17
2023-05-24T21:15:33.942Z,10.06
2023-05-24T21:18:02.003Z,10.02
2023-05-24T21:20:29.736Z,9.97
2023-05-24T21:22:57.406Z,9.91
2023-05-24T21:25:26.390Z,9.94
2023-05-24T21:27:53.991Z,9.91
2023-05-24T21:30:21.957Z,9.79
2023-05-24T21:32:49.700Z,9.69
2023-05-24T21:35:17.761Z,9.71
2023-05-24T21:37:45.376Z,9.63
2023-05-24T21:40:13.909Z,9.52
2023-05-24T21:42:43.234Z,9.57
2023-05-24T21:45:12.642Z,9.50
2023-05-24T21:47:40.630Z,9.40
2023-05-24T21:50:09.254Z,9.37
2023-05-24T21:52:37.187Z,9.58
2023-05-24T21:55:05.572Z,9.77
2023-05-24T21:57:33.431Z,9.72
2023-05-24T22:00:02.545Z,9.83
2023-05-24T22:02:33.294Z,9.81
2023-05-24T22:05:01.240Z,10.02
2023-05-24T22:07:29.097Z,9.94
2023-05-24T22:09:57.216Z,9.91
2023-05-24T22:12:24.958Z,10.00
2023-05-24T22:14:53.500Z,9.91
2023-05-24T22:17:22.834Z,10.02
2023-05-24T22:19:50.697Z,10.09
2023-05-24T22:22:19.537Z,10.07
2023-05-24T22:24:48.676Z,10.03
2023-05-24T22:27:16.877Z,10.04
2023-05-24T22:29:44.876Z,10.05
2023-05-24T22:32:12.741Z,10.03
2023-05-24T22:34:42.190Z,9.98
2023-05-24T22:37:09.890Z,9.97
2023-05-24T22:39:37.575Z,10.04
2023-05-24T22:42:06.016Z,10.04
2023-05-24T22:44:33.761Z,9.98
2023-05-24T22:47:02.242Z,9.92
2023-05-24T22:49:33.908Z,9.93
2023-05-24T22:52:03.590Z,9.97
2023-05-24T22:54:31.271Z,9.93
2023-05-24T22:56:59.005Z,10.07
2023-05-24T22:59:27.094Z,10.16
2023-05-24T23:01:54.993Z,10.25
2023-05-24T23:04:23.273Z,10.20
2023-05-24T23:06:52.572Z,10.29
2023-05-24T23:09:35.050Z,10.36
2023-05-24T23:12:08.034Z,10.30
2023-05-24T23:14:38.603Z,10.34
2023-05-24T23:17:06.871Z,10.27
2023-05-24T23:19:34.928Z,10.31
2023-05-24T23:22:03.430Z,10.31
2023-05-24T23:24:34.526Z,10.23
2023-05-24T23:27:02.290Z,10.46
2023-05-24T23:29:29.920Z,10.53
2023-05-24T23:31:57.753Z,10.46
2023-05-24T23:34:25.406Z,10.61
2023-05-24T23:36:53.470Z,10.66
2023-05-24T23:39:21.356Z,10.77
2023-05-24T23:41:50.552Z,10.77
2023-05-24T23:44:18.163Z,10.70
2023-05-24T23:46:45.874Z,10.72
2023-05-24T23:49:13.864Z,10.68
2023-05-24T23:51:41.546Z,10.59
2023-05-24T23:54:09.451Z,10.54
2023-05-24T23:56:39.030Z,10.66
2023-05-24T23:59:08.313Z,10.58
